首页
METAR-TAF:

METAR-TAF

机场 :

Barkley Regional Airport

Paducah, 肯塔基州, 美国

纬度: 37-03-23N, 经度: 088-46-26W, 海拔: 125米

当前天气观测

该预报发布于22分钟前的16:53 UTC
风速11节,风向南转西南,有时为19节阵风
温度 25°C
湿度 65%
气压 1008 hPa
能見度: 16.1公里
多云层高于2800英尺
阴天层高于3600英尺

METAR: KPAH 281653Z 21011G19KT 10SM BKN028 OVC036 25/18 A2977 RMK AO2 PK WND 21026/1600 SLP077 T02500178

时间: 12:15 (17:15 UTC)

预报

该预报发布于1小时和14分钟前的16:01 UTC
预报有效从28日的 16点(UTC)到 29日的 12点(UTC)
风速12节,风向南转西南,有时为22节阵风
能見度: 10公里
多云层高于2500英尺
从 28日的 2000点(UTC)
风速13节,风向南转西南,有时为21节阵风
能見度: 10公里
阴天层高于3500英尺
附近有阵雨
从 28日的 2300点(UTC)
风速12节,风向南转西南,有时为22节阵风
能見度: 10公里
多云层高于4000英尺, 积雨云.
附近有雷暴
从 29日的 0300点(UTC)
风速14节,风向南转西南,有时为23节阵风
能見度: 10公里
多云层高于9000英尺
从 29日的 0600点(UTC)
风速13节,风向西转西南,有时为22节阵风
能見度: 10公里
散云层高于20000英尺

TAF: KPAH 281601Z 2816/2912 20012G22KT P6SM BKN025 FM282000 21013G21KT P6SM VCSH OVC035 FM282300 21012G22KT P6SM VCTS BKN040CB FM290300 21014G23KT P6SM BKN090 FM290600 24013G22KT P6SM SCT200

超过4000个机场的气象观测和天气预报(METAR&TAF报告)。

可查询的气象台以黄色和红色小点在地图上表示。

将鼠标移到小点上方,可查看气象台名称。

然后点击查看天气观测和预报。

如需切换地图:点击带黑十字的绿色按钮放大地图;点击带横线的绿色按钮缩小地图;或者点击绿色箭头查看邻近地区的地图。


METAR-TAF: